createdAt,value
2023-04-04T00:01:30.076Z,101838.03
2023-04-04T00:06:34.251Z,101847.00
2023-04-04T00:11:37.101Z,101847.28
2023-04-04T00:16:40.469Z,101839.50
2023-04-04T00:21:44.790Z,101837.00
2023-04-04T00:26:47.537Z,101831.56
2023-04-04T00:31:50.366Z,101835.28
2023-04-04T00:36:54.690Z,101833.59
2023-04-04T00:41:58.361Z,101838.91
2023-04-04T00:47:01.315Z,101829.19
2023-04-04T00:52:07.758Z,101825.53
2023-04-04T00:57:10.747Z,101827.59
2023-04-04T01:02:13.719Z,101832.19
2023-04-04T01:07:17.981Z,101834.72
2023-04-04T01:12:21.008Z,101822.22
2023-04-04T01:17:25.084Z,101819.59
2023-04-04T01:22:31.313Z,101815.25
2023-04-04T01:27:35.980Z,101817.00
2023-04-04T01:32:51.622Z,101818.59
2023-04-04T01:38:06.694Z,101820.19
2023-04-04T01:43:11.060Z,101817.72
2023-04-04T01:48:17.069Z,101818.66
2023-04-04T01:53:24.153Z,101815.28
2023-04-04T01:58:28.403Z,101811.91
2023-04-04T02:03:31.578Z,101803.28
2023-04-04T02:08:34.629Z,101795.94
2023-04-04T02:13:41.403Z,101794.03
2023-04-04T02:18:45.104Z,101795.09
2023-04-04T02:23:47.955Z,101801.31
2023-04-04T02:28:52.124Z,101801.38
2023-04-04T02:33:54.947Z,101799.81
2023-04-04T02:38:58.158Z,101791.03
2023-04-04T02:44:04.046Z,101795.47
2023-04-04T02:49:08.210Z,101797.38
2023-04-04T02:54:12.753Z,101782.41
2023-04-04T02:59:21.198Z,101778.97
2023-04-04T03:04:24.034Z,101771.84
2023-04-04T03:09:26.860Z,101767.53
2023-04-04T03:14:31.078Z,101768.63
2023-04-04T03:19:34.569Z,101758.16
2023-04-04T03:31:27.425Z,101760.25
2023-04-04T03:36:30.376Z,101757.06
2023-04-04T03:41:33.093Z,101745.78
2023-04-04T03:46:37.189Z,101753.84
2023-04-04T03:51:40.176Z,101762.50
2023-04-04T03:56:43.083Z,101754.50
2023-04-04T04:01:47.216Z,101752.88
2023-04-04T04:06:50.003Z,101749.34
2023-04-04T04:11:52.871Z,101735.31
2023-04-04T04:16:56.974Z,101732.69
2023-04-04T04:21:59.871Z,101732.63
2023-04-04T04:27:04.049Z,101737.94
2023-04-04T04:32:08.781Z,101738.91
2023-04-04T04:37:17.756Z,101739.81
2023-04-04T04:42:24.551Z,101743.38
2023-04-04T04:47:33.708Z,101737.25
2023-04-04T04:52:40.740Z,101739.06
2023-04-04T04:57:43.606Z,101738.13
2023-04-04T05:02:56.027Z,101744.38
2023-04-04T05:08:08.117Z,101740.88
2023-04-04T05:13:15.060Z,101741.69
2023-04-04T05:18:23.079Z,101744.25
2023-04-04T05:23:26.375Z,101746.78
2023-04-04T05:28:29.728Z,101754.63
2023-04-04T05:33:37.814Z,101764.19
2023-04-04T05:38:48.038Z,101752.50
2023-04-04T05:43:54.537Z,101765.59
2023-04-04T05:49:01.397Z,101766.31
2023-04-04T05:54:07.413Z,101774.75
2023-04-04T05:59:11.555Z,101778.28
2023-04-04T06:04:27.852Z,101780.97
2023-04-04T06:09:33.096Z,101789.66
2023-04-04T06:14:36.408Z,101788.75
2023-04-04T06:19:42.893Z,101800.75
2023-04-04T06:24:45.691Z,101799.53
2023-04-04T06:29:49.407Z,101801.94
2023-04-04T06:34:57.029Z,101804.25
2023-04-04T06:40:14.606Z,101806.72
2023-04-04T06:45:19.154Z,101809.19
2023-04-04T06:50:23.645Z,101813.13
2023-04-04T06:55:28.422Z,101805.34
2023-04-04T07:00:31.563Z,101808.88
2023-04-04T07:05:39.375Z,101808.50
2023-04-04T07:10:42.629Z,101805.34
2023-04-04T07:15:48.817Z,101801.31
2023-04-04T07:20:53.004Z,101802.34
2023-04-04T07:25:55.934Z,101802.50
2023-04-04T07:31:00.781Z,101796.91
2023-04-04T07:36:05.746Z,101797.75
2023-04-04T07:41:11.709Z,101796.94
2023-04-04T07:46:14.537Z,101788.28
2023-04-04T07:51:20.741Z,101781.47
2023-04-04T07:56:23.561Z,101788.06
2023-04-04T08:01:26.978Z,101786.03
2023-04-04T08:06:31.102Z,101775.44
2023-04-04T08:11:33.911Z,101779.16
2023-04-04T08:16:36.708Z,101777.53
2023-04-04T08:21:40.848Z,101787.09
2023-04-04T08:26:47.009Z,101773.91
2023-04-04T08:31:54.599Z,101767.13
2023-04-04T08:36:59.955Z,101767.34
2023-04-04T08:42:05.617Z,101759.72
2023-04-04T08:47:10.690Z,101767.50
2023-04-04T08:52:19.174Z,101768.28
2023-04-04T08:57:22.244Z,101762.16
2023-04-04T09:02:30.521Z,101760.84
2023-04-04T09:07:37.172Z,101760.03
2023-04-04T09:12:45.475Z,101766.22
2023-04-04T09:17:49.028Z,101759.25
2023-04-04T09:22:53.165Z,101756.25
2023-04-04T09:27:57.974Z,101765.63
2023-04-04T09:33:06.589Z,101748.34
2023-04-04T09:38:11.002Z,101742.28
2023-04-04T09:43:14.573Z,101750.50
2023-04-04T09:48:27.239Z,101729.59
2023-04-04T09:53:31.262Z,101732.09
2023-04-04T09:58:36.276Z,101721.69
2023-04-04T10:03:39.984Z,101724.56
2023-04-04T10:08:45.153Z,101728.19
2023-04-04T10:13:47.938Z,101721.38
2023-04-04T10:18:51.438Z,101719.31
2023-04-04T10:23:57.391Z,101711.88
2023-04-04T10:29:00.594Z,101711.63
2023-04-04T10:34:12.668Z,101694.84
2023-04-04T10:39:25.032Z,101702.16
2023-04-04T10:44:31.795Z,101685.88
2023-04-04T10:49:36.186Z,101684.25
2023-04-04T10:54:41.195Z,101688.66
2023-04-04T10:59:57.981Z,101672.19
2023-04-04T11:05:11.687Z,101660.81
2023-04-04T11:10:22.109Z,101655.00
2023-04-04T11:15:26.471Z,101650.91
2023-04-04T11:20:34.484Z,101648.03
2023-04-04T11:25:41.129Z,101647.28
2023-04-04T11:30:48.766Z,101638.81
2023-04-04T11:35:51.903Z,101630.19
2023-04-04T11:40:57.026Z,101626.28
2023-04-04T11:46:08.838Z,101617.16
2023-04-04T11:51:12.798Z,101617.91
2023-04-04T11:56:18.007Z,101602.16
2023-04-04T12:01:21.681Z,101604.22
2023-04-04T12:06:25.441Z,101594.53
2023-04-04T12:11:31.066Z,101597.91
2023-04-04T12:16:33.857Z,101601.69
2023-04-04T12:21:36.646Z,101586.69
2023-04-04T12:26:43.074Z,101579.78
2023-04-04T12:31:47.507Z,101573.75
2023-04-04T12:36:54.085Z,101570.28
2023-04-04T12:41:59.630Z,101568.28
2023-04-04T12:47:04.900Z,101556.31
2023-04-04T12:52:09.156Z,101543.56
2023-04-04T12:57:18.385Z,101541.84
2023-04-04T13:02:23.615Z,101535.41
2023-04-04T13:07:28.453Z,101523.66
2023-04-04T13:12:58.336Z,101506.69
2023-04-04T13:18:15.384Z,101503.25
2023-04-04T13:23:18.400Z,101501.06
2023-04-04T13:28:22.507Z,101488.81
2023-04-04T13:33:25.529Z,101483.13
2023-04-04T13:38:28.894Z,101473.47
2023-04-04T13:43:33.025Z,101478.16
2023-04-04T13:48:35.766Z,101466.22
2023-04-04T13:53:38.546Z,101457.31
2023-04-04T13:58:43.099Z,101450.84
2023-04-04T14:03:46.093Z,101450.56
2023-04-04T14:08:48.877Z,101449.06
2023-04-04T14:13:53.136Z,101440.66
2023-04-04T14:18:56.149Z,101441.66
2023-04-04T14:23:58.975Z,101429.91
2023-04-04T14:29:03.395Z,101435.13
2023-04-04T14:34:06.750Z,101435.13
2023-04-04T14:39:09.567Z,101424.31
2023-04-04T14:44:14.193Z,101410.63
2023-04-04T14:49:16.926Z,101400.69
2023-04-04T14:54:19.728Z,101401.19
2023-04-04T14:59:23.986Z,101388.88
2023-04-04T15:04:27.201Z,101385.75
2023-04-04T15:09:30.776Z,101372.22
2023-04-04T15:14:35.036Z,101380.75
2023-04-04T15:19:37.839Z,101376.72
2023-04-04T15:24:40.892Z,101383.13
2023-04-04T15:29:45.034Z,101377.44
2023-04-04T15:34:47.807Z,101379.72
2023-04-04T15:39:53.410Z,101383.44
2023-04-04T15:44:59.345Z,101377.97
2023-04-04T15:50:02.097Z,101369.56
2023-04-04T15:55:07.448Z,101372.31
2023-04-04T16:00:13.211Z,101371.28
2023-04-04T16:05:16.022Z,101366.81
2023-04-04T16:10:18.786Z,101362.44
2023-04-04T16:15:22.988Z,101356.41
2023-04-04T16:20:26.544Z,101358.31
2023-04-04T16:25:29.662Z,101350.44
2023-04-04T16:30:33.946Z,101351.38
2023-04-04T16:35:37.361Z,101355.88
2023-04-04T16:40:40.386Z,101354.06
2023-04-04T16:45:44.745Z,101349.13
2023-04-04T16:50:47.484Z,101356.78
2023-04-04T16:55:50.099Z,101350.06
2023-04-04T17:00:54.266Z,101341.78
2023-04-04T17:05:59.828Z,101343.06
2023-04-04T17:11:02.729Z,101342.31
2023-04-04T17:16:07.373Z,101338.84
2023-04-04T17:21:10.281Z,101337.00
2023-04-04T17:26:13.306Z,101328.34
2023-04-04T17:31:18.385Z,101330.66
2023-04-04T17:36:21.306Z,101330.44
2023-04-04T17:41:24.306Z,101332.41
2023-04-04T17:46:28.592Z,101332.47
2023-04-04T17:51:31.950Z,101341.69
2023-04-04T17:56:34.678Z,101344.28
2023-04-04T18:01:40.205Z,101345.00
2023-04-04T18:06:43.398Z,101347.00
2023-04-04T18:11:46.308Z,101347.84
2023-04-04T18:16:50.402Z,101350.34
2023-04-04T18:21:54.313Z,101351.97
2023-04-04T18:26:57.858Z,101360.53
2023-04-04T18:32:02.766Z,101356.84
2023-04-04T18:37:06.266Z,101356.38
2023-04-04T18:42:10.530Z,101357.53
2023-04-04T18:47:14.698Z,101360.38
2023-04-04T18:52:17.505Z,101357.25
2023-04-04T18:57:20.603Z,101364.88
2023-04-04T19:02:24.809Z,101356.16
2023-04-04T19:07:29.050Z,101359.25
2023-04-04T19:12:31.924Z,101358.34
2023-04-04T19:17:36.147Z,101360.84
2023-04-04T19:22:39.023Z,101373.63
2023-04-04T19:27:41.822Z,101367.41
2023-04-04T19:32:45.951Z,101355.03
2023-04-04T19:37:48.827Z,101358.72
2023-04-04T19:42:51.611Z,101358.78
2023-04-04T19:47:56.040Z,101363.91
2023-04-04T19:52:58.954Z,101360.44
2023-04-04T19:58:02.544Z,101370.34
2023-04-04T20:03:08.852Z,101368.97
2023-04-04T20:08:11.652Z,101367.41
2023-04-04T20:13:14.941Z,101370.56
2023-04-04T20:18:24.057Z,101371.91
2023-04-04T20:23:27.314Z,101370.13
2023-04-04T20:28:30.291Z,101364.66
2023-04-04T20:33:36.700Z,101367.69
2023-04-04T20:38:41.660Z,101359.69
2023-04-04T20:43:51.541Z,101357.81
2023-04-04T20:48:56.839Z,101351.59
2023-04-04T20:54:01.761Z,101352.69
2023-04-04T20:59:07.357Z,101347.50
2023-04-04T21:04:25.050Z,101361.09
2023-04-04T21:09:28.840Z,101359.38
2023-04-04T21:14:37.275Z,101354.97
2023-04-04T21:19:41.410Z,101345.59
2023-04-04T21:24:44.176Z,101351.34
2023-04-04T21:29:47.019Z,101344.09
2023-04-04T21:34:51.125Z,101343.00
2023-04-04T21:39:59.862Z,101340.31
2023-04-04T21:45:02.579Z,101343.44
2023-04-04T21:50:08.253Z,101335.69
2023-04-04T21:55:11.158Z,101335.09
2023-04-04T22:00:15.258Z,101325.63
2023-04-04T22:05:21.632Z,101325.56
2023-04-04T22:10:27.495Z,101314.41
2023-04-04T22:15:30.342Z,101320.88
2023-04-04T22:20:34.570Z,101317.59
2023-04-04T22:25:37.441Z,101315.69
2023-04-04T22:30:42.209Z,101315.56
2023-04-04T22:35:46.776Z,101318.34
2023-04-04T22:40:49.602Z,101314.63
2023-04-04T22:45:53.649Z,101320.63
2023-04-04T22:50:58.671Z,101309.25
2023-04-04T22:56:01.623Z,101305.44
2023-04-04T23:01:04.638Z,101311.88
2023-04-04T23:06:08.900Z,101307.94
2023-04-04T23:11:11.678Z,101299.97
2023-04-04T23:16:14.811Z,101299.84
2023-04-04T23:21:18.998Z,101307.94
2023-04-04T23:26:21.805Z,101301.00
2023-04-04T23:31:25.686Z,101298.75
2023-04-04T23:36:30.054Z,101301.69
2023-04-04T23:41:33.251Z,101298.34
2023-04-04T23:46:36.250Z,101291.91
2023-04-04T23:51:40.410Z,101279.34
2023-04-04T23:56:43.207Z,101280.97
